METAR Data
IDs: Format: Raw Decoded Include TAF

Data at: 0237 UTC 12 Dec 2018

METAR for:KTVY (Tooele Valley Arpt, UT, US)
Text:KTVY 120235Z AUTO 22008KT 7SM OVC013 M02/M03 A3024 RMK AO2
Temperature: -2.0°C ( 28°F)
Dewpoint: -3.0°C ( 27°F) [RH = 93%]
Pressure (altimeter):30.24 inches Hg (1024.1 mb)
Winds:from the SW (220 degrees) at 9 MPH (8 knots; 4.1 m/s)
Visibility: 7 sm ( 11 km)
Ceiling:1300 feet AGL
Clouds: overcast cloud deck at 1300 feet AGL
QC Flag:automated observation with no human augmentation
Text:KTVY 120215Z AUTO 20008KT 7SM OVC013 M02/M03 A3024 RMK AO2
Temperature: -2.0°C ( 28°F)
Dewpoint: -3.0°C ( 27°F) [RH = 93%]
Pressure (altimeter):30.24 inches Hg (1024.1 mb)
Winds:from the SSW (200 degrees) at 9 MPH (8 knots; 4.1 m/s)
Visibility: 7 sm ( 11 km)
Ceiling:1300 feet AGL
Clouds: overcast cloud deck at 1300 feet AGL
QC Flag:automated observation with no human augmentation
Text:KTVY 120155Z AUTO 17003KT 7SM OVC013 M01/M03 A3025 RMK AO2
Temperature: -1.0°C ( 30°F)
Dewpoint: -3.0°C ( 27°F) [RH = 86%]
Pressure (altimeter):30.25 inches Hg (1024.5 mb)
Winds:from the S (170 degrees) at 3 MPH (3 knots; 1.5 m/s)
Visibility: 7 sm ( 11 km)
Ceiling:1300 feet AGL
Clouds: overcast cloud deck at 1300 feet AGL
QC Flag:automated observation with no human augmentation
Text:KTVY 120135Z AUTO 18006KT 7SM OVC013 M01/M03 A3025 RMK AO2
Temperature: -1.0°C ( 30°F)
Dewpoint: -3.0°C ( 27°F) [RH = 86%]
Pressure (altimeter):30.25 inches Hg (1024.5 mb)
Winds:from the S (180 degrees) at 7 MPH (6 knots; 3.1 m/s)
Visibility: 7 sm ( 11 km)
Ceiling:1300 feet AGL
Clouds: overcast cloud deck at 1300 feet AGL
QC Flag:automated observation with no human augmentation
Text:KTVY 120115Z AUTO 18006KT 7SM OVC015 M01/M03 A3025 RMK AO2
Temperature: -1.0°C ( 30°F)
Dewpoint: -3.0°C ( 27°F) [RH = 86%]
Pressure (altimeter):30.25 inches Hg (1024.5 mb)
Winds:from the S (180 degrees) at 7 MPH (6 knots; 3.1 m/s)
Visibility: 7 sm ( 11 km)
Ceiling:1500 feet AGL
Clouds: overcast cloud deck at 1500 feet AGL
QC Flag:automated observation with no human augmentation
Text:KTVY 120055Z AUTO 17003KT 10SM OVC015 M01/M03 A3025 RMK AO2
Temperature: -1.0°C ( 30°F)
Dewpoint: -3.0°C ( 27°F) [RH = 86%]
Pressure (altimeter):30.25 inches Hg (1024.5 mb)
Winds:from the S (170 degrees) at 3 MPH (3 knots; 1.5 m/s)
Visibility:10 or more sm (16+ km)
Ceiling:1500 feet AGL
Clouds: overcast cloud deck at 1500 feet AGL
QC Flag:automated observation with no human augmentation
Text:KTVY 120035Z AUTO 16006KT 7SM OVC015 M01/M03 A3025 RMK AO2
Temperature: -1.0°C ( 30°F)
Dewpoint: -3.0°C ( 27°F) [RH = 86%]
Pressure (altimeter):30.25 inches Hg (1024.5 mb)
Winds:from the SSE (160 degrees) at 7 MPH (6 knots; 3.1 m/s)
Visibility: 7 sm ( 11 km)
Ceiling:1500 feet AGL
Clouds: overcast cloud deck at 1500 feet AGL
QC Flag:automated observation with no human augmentation
Text:KTVY 120015Z AUTO 16009KT 7SM OVC017 M01/M03 A3025 RMK AO2
Temperature: -1.0°C ( 30°F)
Dewpoint: -3.0°C ( 27°F) [RH = 86%]
Pressure (altimeter):30.25 inches Hg (1024.5 mb)
Winds:from the SSE (160 degrees) at 10 MPH (9 knots; 4.6 m/s)
Visibility: 7 sm ( 11 km)
Ceiling:1700 feet AGL
Clouds: overcast cloud deck at 1700 feet AGL
QC Flag:automated observation with no human augmentation
Text:KTVY 112355Z AUTO 17009KT 7SM OVC017 M01/M03 A3026 RMK AO2
Temperature: -1.0°C ( 30°F)
Dewpoint: -3.0°C ( 27°F) [RH = 86%]
Pressure (altimeter):30.26 inches Hg (1024.8 mb)
Winds:from the S (170 degrees) at 10 MPH (9 knots; 4.6 m/s)
Visibility: 7 sm ( 11 km)
Ceiling:1700 feet AGL
Clouds: overcast cloud deck at 1700 feet AGL
QC Flag:automated observation with no human augmentation
Text:KTVY 112335Z AUTO 17008KT 7SM OVC019 M01/M02 A3026 RMK AO2
Temperature: -1.0°C ( 30°F)
Dewpoint: -2.0°C ( 28°F) [RH = 93%]
Pressure (altimeter):30.26 inches Hg (1024.8 mb)
Winds:from the S (170 degrees) at 9 MPH (8 knots; 4.1 m/s)
Visibility: 7 sm ( 11 km)
Ceiling:1900 feet AGL
Clouds: overcast cloud deck at 1900 feet AGL
QC Flag:automated observation with no human augmentation
Text:KTVY 112315Z AUTO 17008KT 7SM OVC019 M01/M02 A3027 RMK AO2
Temperature: -1.0°C ( 30°F)
Dewpoint: -2.0°C ( 28°F) [RH = 93%]
Pressure (altimeter):30.27 inches Hg (1025.1 mb)
Winds:from the S (170 degrees) at 9 MPH (8 knots; 4.1 m/s)
Visibility: 7 sm ( 11 km)
Ceiling:1900 feet AGL
Clouds: overcast cloud deck at 1900 feet AGL
QC Flag:automated observation with no human augmentation
Text:KTVY 112255Z AUTO 15006KT 7SM OVC019 M01/M02 A3027 RMK AO2
Temperature: -1.0°C ( 30°F)
Dewpoint: -2.0°C ( 28°F) [RH = 93%]
Pressure (altimeter):30.27 inches Hg (1025.1 mb)
Winds:from the SSE (150 degrees) at 7 MPH (6 knots; 3.1 m/s)
Visibility: 7 sm ( 11 km)
Ceiling:1900 feet AGL
Clouds: overcast cloud deck at 1900 feet AGL
QC Flag:automated observation with no human augmentation
Text:KTVY 112235Z AUTO 15006KT 7SM OVC021 M01/M02 A3028 RMK AO2
Temperature: -1.0°C ( 30°F)
Dewpoint: -2.0°C ( 28°F) [RH = 93%]
Pressure (altimeter):30.28 inches Hg (1025.5 mb)
Winds:from the SSE (150 degrees) at 7 MPH (6 knots; 3.1 m/s)
Visibility: 7 sm ( 11 km)
Ceiling:2100 feet AGL
Clouds: overcast cloud deck at 2100 feet AGL
QC Flag:automated observation with no human augmentation
Text:KTVY 112215Z AUTO 17007KT 7SM OVC021 M01/M02 A3028 RMK AO2
Temperature: -1.0°C ( 30°F)
Dewpoint: -2.0°C ( 28°F) [RH = 93%]
Pressure (altimeter):30.28 inches Hg (1025.5 mb)
Winds:from the S (170 degrees) at 8 MPH (7 knots; 3.6 m/s)
Visibility: 7 sm ( 11 km)
Ceiling:2100 feet AGL
Clouds: overcast cloud deck at 2100 feet AGL
QC Flag:automated observation with no human augmentation
Text:KTVY 112155Z AUTO 18008KT 7SM OVC021 00/M02 A3028 RMK AO2
Temperature: 0.0°C ( 32°F)
Dewpoint: -2.0°C ( 28°F) [RH = 86%]
Pressure (altimeter):30.28 inches Hg (1025.5 mb)
Winds:from the S (180 degrees) at 9 MPH (8 knots; 4.1 m/s)
Visibility: 7 sm ( 11 km)
Ceiling:2100 feet AGL
Clouds: overcast cloud deck at 2100 feet AGL
QC Flag:automated observation with no human augmentation